sensor_id;sensor_type;location;lat;lon;timestamp;P1;durP1;ratioP1;P2;durP2;ratioP2
11504;SDS011;5809;53.262;10.408;2024-01-15T00:00:21;8.07;;;3.23;;
11504;SDS011;5809;53.262;10.408;2024-01-15T00:02:48;12.33;;;3.57;;
11504;SDS011;5809;53.262;10.408;2024-01-15T00:05:15;11.00;;;2.70;;
11504;SDS011;5809;53.262;10.408;2024-01-15T00:07:44;16.70;;;3.40;;
11504;SDS011;5809;53.262;10.408;2024-01-15T00:10:11;9.93;;;2.87;;
11504;SDS011;5809;53.262;10.408;2024-01-15T00:12:37;13.97;;;3.53;;
11504;SDS011;5809;53.262;10.408;2024-01-15T00:15:05;14.57;;;3.17;;
11504;SDS011;5809;53.262;10.408;2024-01-15T00:17:32;14.00;;;3.37;;
11504;SDS011;5809;53.262;10.408;2024-01-15T00:19:59;11.43;;;3.53;;
11504;SDS011;5809;53.262;10.408;2024-01-15T00:22:26;14.17;;;3.50;;
11504;SDS011;5809;53.262;10.408;2024-01-15T00:24:55;7.97;;;2.93;;
11504;SDS011;5809;53.262;10.408;2024-01-15T00:27:21;12.63;;;3.20;;
11504;SDS011;5809;53.262;10.408;2024-01-15T00:29:48;12.03;;;3.10;;
11504;SDS011;5809;53.262;10.408;2024-01-15T00:32:17;14.10;;;3.20;;
11504;SDS011;5809;53.262;10.408;2024-01-15T00:34:44;9.63;;;2.60;;
11504;SDS011;5809;53.262;10.408;2024-01-15T00:37:11;7.50;;;3.20;;
11504;SDS011;5809;53.262;10.408;2024-01-15T00:39:38;10.80;;;2.87;;
11504;SDS011;5809;53.262;10.408;2024-01-15T00:42:06;9.40;;;3.40;;
11504;SDS011;5809;53.262;10.408;2024-01-15T00:44:33;10.47;;;2.60;;
11504;SDS011;5809;53.262;10.408;2024-01-15T00:47:00;10.23;;;2.93;;
11504;SDS011;5809;53.262;10.408;2024-01-15T00:49:27;11.13;;;3.07;;
11504;SDS011;5809;53.262;10.408;2024-01-15T00:51:54;9.50;;;3.20;;
11504;SDS011;5809;53.262;10.408;2024-01-15T00:54:21;15.43;;;2.80;;
11504;SDS011;5809;53.262;10.408;2024-01-15T00:56:49;10.13;;;3.17;;
11504;SDS011;5809;53.262;10.408;2024-01-15T00:59:17;15.50;;;3.33;;
11504;SDS011;5809;53.262;10.408;2024-01-15T01:01:45;12.53;;;2.63;;
11504;SDS011;5809;53.262;10.408;2024-01-15T01:04:13;11.40;;;2.97;;
11504;SDS011;5809;53.262;10.408;2024-01-15T01:06:40;14.17;;;2.73;;
11504;SDS011;5809;53.262;10.408;2024-01-15T01:09:07;11.17;;;3.30;;
11504;SDS011;5809;53.262;10.408;2024-01-15T01:11:34;12.43;;;2.80;;
11504;SDS011;5809;53.262;10.408;2024-01-15T01:14:01;12.63;;;3.00;;
11504;SDS011;5809;53.262;10.408;2024-01-15T01:16:29;12.07;;;2.80;;
11504;SDS011;5809;53.262;10.408;2024-01-15T01:18:59;13.63;;;2.70;;
11504;SDS011;5809;53.262;10.408;2024-01-15T01:21:26;10.70;;;1.97;;
11504;SDS011;5809;53.262;10.408;2024-01-15T01:23:53;9.70;;;2.50;;
11504;SDS011;5809;53.262;10.408;2024-01-15T01:26:20;9.53;;;2.10;;
11504;SDS011;5809;53.262;10.408;2024-01-15T01:28:46;12.77;;;2.60;;
11504;SDS011;5809;53.262;10.408;2024-01-15T01:31:13;9.90;;;2.17;;
11504;SDS011;5809;53.262;10.408;2024-01-15T01:33:43;9.23;;;2.40;;
11504;SDS011;5809;53.262;10.408;2024-01-15T01:36:09;10.67;;;2.50;;
11504;SDS011;5809;53.262;10.408;2024-01-15T01:38:36;9.33;;;2.37;;
11504;SDS011;5809;53.262;10.408;2024-01-15T01:41:04;9.63;;;2.00;;
11504;SDS011;5809;53.262;10.408;2024-01-15T01:43:31;11.40;;;2.10;;
11504;SDS011;5809;53.262;10.408;2024-01-15T01:45:58;8.20;;;2.00;;
11504;SDS011;5809;53.262;10.408;2024-01-15T01:48:28;8.87;;;2.17;;
11504;SDS011;5809;53.262;10.408;2024-01-15T01:50:58;9.23;;;1.97;;
11504;SDS011;5809;53.262;10.408;2024-01-15T01:53:27;6.17;;;2.10;;
11504;SDS011;5809;53.262;10.408;2024-01-15T01:55:54;7.53;;;2.20;;
11504;SDS011;5809;53.262;10.408;2024-01-15T01:58:23;9.03;;;2.27;;
11504;SDS011;5809;53.262;10.408;2024-01-15T02:00:50;12.57;;;2.83;;
11504;SDS011;5809;53.262;10.408;2024-01-15T02:03:17;12.00;;;2.17;;
11504;SDS011;5809;53.262;10.408;2024-01-15T02:05:44;8.43;;;2.50;;
11504;SDS011;5809;53.262;10.408;2024-01-15T02:08:15;9.87;;;2.70;;
11504;SDS011;5809;53.262;10.408;2024-01-15T02:10:42;12.27;;;2.53;;
11504;SDS011;5809;53.262;10.408;2024-01-15T02:13:09;12.07;;;2.90;;
11504;SDS011;5809;53.262;10.408;2024-01-15T02:15:36;10.00;;;2.50;;
11504;SDS011;5809;53.262;10.408;2024-01-15T02:18:03;7.80;;;2.00;;
11504;SDS011;5809;53.262;10.408;2024-01-15T02:20:32;12.83;;;3.17;;
11504;SDS011;5809;53.262;10.408;2024-01-15T02:23:07;10.20;;;2.10;;
11504;SDS011;5809;53.262;10.408;2024-01-15T02:25:35;7.50;;;2.17;;
11504;SDS011;5809;53.262;10.408;2024-01-15T02:28:04;12.33;;;2.77;;
11504;SDS011;5809;53.262;10.408;2024-01-15T02:30:31;8.80;;;2.40;;
11504;SDS011;5809;53.262;10.408;2024-01-15T02:32:58;5.93;;;1.80;;
11504;SDS011;5809;53.262;10.408;2024-01-15T02:35:26;5.40;;;1.67;;
11504;SDS011;5809;53.262;10.408;2024-01-15T02:37:53;6.13;;;1.50;;
11504;SDS011;5809;53.262;10.408;2024-01-15T02:40:21;5.97;;;1.67;;
11504;SDS011;5809;53.262;10.408;2024-01-15T02:42:48;4.83;;;1.87;;
11504;SDS011;5809;53.262;10.408;2024-01-15T02:45:15;6.50;;;2.10;;
11504;SDS011;5809;53.262;10.408;2024-01-15T02:47:43;7.80;;;2.50;;
11504;SDS011;5809;53.262;10.408;2024-01-15T02:50:10;6.33;;;2.67;;
11504;SDS011;5809;53.262;10.408;2024-01-15T02:52:37;11.03;;;3.40;;
11504;SDS011;5809;53.262;10.408;2024-01-15T02:55:04;8.47;;;3.20;;
11504;SDS011;5809;53.262;10.408;2024-01-15T02:57:33;9.63;;;3.23;;
11504;SDS011;5809;53.262;10.408;2024-01-15T03:00:00;10.33;;;3.60;;
11504;SDS011;5809;53.262;10.408;2024-01-15T03:02:27;12.13;;;3.40;;
11504;SDS011;5809;53.262;10.408;2024-01-15T03:04:56;7.90;;;3.17;;
11504;SDS011;5809;53.262;10.408;2024-01-15T03:07:23;7.77;;;3.10;;
11504;SDS011;5809;53.262;10.408;2024-01-15T03:09:50;9.40;;;3.17;;
11504;SDS011;5809;53.262;10.408;2024-01-15T03:12:17;9.77;;;3.20;;
11504;SDS011;5809;53.262;10.408;2024-01-15T03:14:45;11.50;;;3.20;;
11504;SDS011;5809;53.262;10.408;2024-01-15T03:17:12;6.97;;;2.97;;
11504;SDS011;5809;53.262;10.408;2024-01-15T03:19:39;6.37;;;2.90;;
11504;SDS011;5809;53.262;10.408;2024-01-15T03:22:06;12.03;;;3.43;;
11504;SDS011;5809;53.262;10.408;2024-01-15T03:24:34;7.73;;;2.97;;
11504;SDS011;5809;53.262;10.408;2024-01-15T03:27:01;8.37;;;3.13;;
11504;SDS011;5809;53.262;10.408;2024-01-15T03:29:29;10.40;;;3.33;;
11504;SDS011;5809;53.262;10.408;2024-01-15T03:31:57;10.23;;;3.03;;
11504;SDS011;5809;53.262;10.408;2024-01-15T03:34:24;10.53;;;3.03;;
11504;SDS011;5809;53.262;10.408;2024-01-15T03:36:51;9.47;;;2.90;;
11504;SDS011;5809;53.262;10.408;2024-01-15T03:39:18;7.77;;;2.83;;
11504;SDS011;5809;53.262;10.408;2024-01-15T03:41:45;5.60;;;2.90;;
11504;SDS011;5809;53.262;10.408;2024-01-15T03:44:11;12.13;;;2.97;;
11504;SDS011;5809;53.262;10.408;2024-01-15T03:46:38;7.27;;;3.00;;
11504;SDS011;5809;53.262;10.408;2024-01-15T03:49:06;6.07;;;2.50;;
11504;SDS011;5809;53.262;10.408;2024-01-15T03:51:33;4.73;;;2.13;;
11504;SDS011;5809;53.262;10.408;2024-01-15T03:54:00;12.83;;;3.63;;
11504;SDS011;5809;53.262;10.408;2024-01-15T03:56:27;12.77;;;2.60;;
11504;SDS011;5809;53.262;10.408;2024-01-15T03:58:54;12.00;;;2.93;;
11504;SDS011;5809;53.262;10.408;2024-01-15T04:01:21;18.33;;;3.50;;
11504;SDS011;5809;53.262;10.408;2024-01-15T04:03:48;11.97;;;2.60;;
11504;SDS011;5809;53.262;10.408;2024-01-15T04:06:16;13.93;;;2.60;;
11504;SDS011;5809;53.262;10.408;2024-01-15T04:08:43;15.73;;;3.03;;
11504;SDS011;5809;53.262;10.408;2024-01-15T04:11:10;14.13;;;2.70;;
11504;SDS011;5809;53.262;10.408;2024-01-15T04:13:37;17.40;;;3.53;;
11504;SDS011;5809;53.262;10.408;2024-01-15T04:16:04;11.93;;;2.07;;
11504;SDS011;5809;53.262;10.408;2024-01-15T04:18:31;13.80;;;2.50;;
11504;SDS011;5809;53.262;10.408;2024-01-15T04:20:58;14.23;;;2.93;;
11504;SDS011;5809;53.262;10.408;2024-01-15T04:23:27;15.43;;;3.03;;
11504;SDS011;5809;53.262;10.408;2024-01-15T04:25:53;12.33;;;2.83;;
11504;SDS011;5809;53.262;10.408;2024-01-15T04:28:21;19.07;;;2.53;;
11504;SDS011;5809;53.262;10.408;2024-01-15T04:30:48;18.83;;;2.90;;
11504;SDS011;5809;53.262;10.408;2024-01-15T04:33:15;16.17;;;2.60;;
11504;SDS011;5809;53.262;10.408;2024-01-15T04:35:42;13.70;;;2.73;;
11504;SDS011;5809;53.262;10.408;2024-01-15T04:38:09;13.43;;;3.13;;
11504;SDS011;5809;53.262;10.408;2024-01-15T04:40:37;17.50;;;3.10;;
11504;SDS011;5809;53.262;10.408;2024-01-15T04:43:04;16.17;;;2.53;;
11504;SDS011;5809;53.262;10.408;2024-01-15T04:45:31;16.43;;;3.03;;
11504;SDS011;5809;53.262;10.408;2024-01-15T04:47:58;13.37;;;2.83;;
11504;SDS011;5809;53.262;10.408;2024-01-15T04:50:25;14.37;;;3.10;;
11504;SDS011;5809;53.262;10.408;2024-01-15T04:52:52;21.97;;;3.87;;
11504;SDS011;5809;53.262;10.408;2024-01-15T04:55:19;20.60;;;3.10;;
11504;SDS011;5809;53.262;10.408;2024-01-15T04:57:48;16.97;;;3.23;;
11504;SDS011;5809;53.262;10.408;2024-01-15T05:00:15;20.80;;;3.13;;
11504;SDS011;5809;53.262;10.408;2024-01-15T05:02:42;19.67;;;3.40;;
11504;SDS011;5809;53.262;10.408;2024-01-15T05:05:09;22.10;;;4.03;;
11504;SDS011;5809;53.262;10.408;2024-01-15T05:07:36;22.93;;;3.70;;
11504;SDS011;5809;53.262;10.408;2024-01-15T05:10:03;18.90;;;3.27;;
11504;SDS011;5809;53.262;10.408;2024-01-15T05:12:32;16.77;;;3.53;;
11504;SDS011;5809;53.262;10.408;2024-01-15T05:15:00;17.50;;;3.90;;
11504;SDS011;5809;53.262;10.408;2024-01-15T05:17:27;20.10;;;3.80;;
11504;SDS011;5809;53.262;10.408;2024-01-15T05:19:54;23.23;;;3.63;;
11504;SDS011;5809;53.262;10.408;2024-01-15T05:22:21;15.80;;;3.60;;
11504;SDS011;5809;53.262;10.408;2024-01-15T05:24:50;19.07;;;3.90;;
11504;SDS011;5809;53.262;10.408;2024-01-15T05:27:17;12.60;;;3.93;;
11504;SDS011;5809;53.262;10.408;2024-01-15T05:29:44;17.57;;;4.00;;
11504;SDS011;5809;53.262;10.408;2024-01-15T05:32:13;14.43;;;3.63;;
11504;SDS011;5809;53.262;10.408;2024-01-15T05:34:39;17.70;;;4.47;;
11504;SDS011;5809;53.262;10.408;2024-01-15T05:37:06;14.47;;;3.97;;
11504;SDS011;5809;53.262;10.408;2024-01-15T05:39:33;20.23;;;4.20;;
11504;SDS011;5809;53.262;10.408;2024-01-15T05:41:59;17.50;;;4.37;;
11504;SDS011;5809;53.262;10.408;2024-01-15T05:44:27;19.80;;;4.53;;
11504;SDS011;5809;53.262;10.408;2024-01-15T05:46:53;19.27;;;4.50;;
11504;SDS011;5809;53.262;10.408;2024-01-15T05:49:22;16.80;;;4.40;;
11504;SDS011;5809;53.262;10.408;2024-01-15T05:51:49;17.60;;;4.30;;
11504;SDS011;5809;53.262;10.408;2024-01-15T05:54:17;12.47;;;3.70;;
11504;SDS011;5809;53.262;10.408;2024-01-15T05:56:45;14.63;;;3.77;;
11504;SDS011;5809;53.262;10.408;2024-01-15T05:59:11;17.97;;;4.20;;
11504;SDS011;5809;53.262;10.408;2024-01-15T06:01:38;14.10;;;4.17;;
11504;SDS011;5809;53.262;10.408;2024-01-15T06:04:05;14.77;;;3.83;;
11504;SDS011;5809;53.262;10.408;2024-01-15T06:06:34;14.67;;;3.97;;
11504;SDS011;5809;53.262;10.408;2024-01-15T06:09:01;13.87;;;4.03;;
11504;SDS011;5809;53.262;10.408;2024-01-15T06:11:30;15.60;;;3.93;;
11504;SDS011;5809;53.262;10.408;2024-01-15T06:13:57;14.57;;;3.57;;
11504;SDS011;5809;53.262;10.408;2024-01-15T06:16:25;16.80;;;4.20;;
11504;SDS011;5809;53.262;10.408;2024-01-15T06:18:52;16.10;;;4.40;;
11504;SDS011;5809;53.262;10.408;2024-01-15T06:21:19;13.77;;;4.23;;
11504;SDS011;5809;53.262;10.408;2024-01-15T06:23:48;18.30;;;4.30;;
11504;SDS011;5809;53.262;10.408;2024-01-15T06:26:14;15.57;;;3.87;;
11504;SDS011;5809;53.262;10.408;2024-01-15T06:28:41;14.57;;;5.13;;
11504;SDS011;5809;53.262;10.408;2024-01-15T06:31:08;16.27;;;4.53;;
11504;SDS011;5809;53.262;10.408;2024-01-15T06:33:35;14.73;;;4.80;;
11504;SDS011;5809;53.262;10.408;2024-01-15T06:36:03;14.60;;;4.33;;
11504;SDS011;5809;53.262;10.408;2024-01-15T06:38:30;11.23;;;4.23;;
11504;SDS011;5809;53.262;10.408;2024-01-15T06:40:58;17.67;;;4.87;;
11504;SDS011;5809;53.262;10.408;2024-01-15T06:43:26;15.53;;;4.10;;
11504;SDS011;5809;53.262;10.408;2024-01-15T06:45:53;19.13;;;4.33;;
11504;SDS011;5809;53.262;10.408;2024-01-15T06:48:20;17.43;;;3.93;;
11504;SDS011;5809;53.262;10.408;2024-01-15T06:50:47;12.90;;;3.40;;
11504;SDS011;5809;53.262;10.408;2024-01-15T06:53:14;18.43;;;3.73;;
11504;SDS011;5809;53.262;10.408;2024-01-15T06:55:41;15.50;;;3.17;;
11504;SDS011;5809;53.262;10.408;2024-01-15T06:58:09;13.03;;;3.10;;
11504;SDS011;5809;53.262;10.408;2024-01-15T07:00:36;15.33;;;3.00;;
11504;SDS011;5809;53.262;10.408;2024-01-15T07:03:03;12.37;;;2.77;;
11504;SDS011;5809;53.262;10.408;2024-01-15T07:05:30;8.97;;;2.10;;
11504;SDS011;5809;53.262;10.408;2024-01-15T07:07:57;13.17;;;2.47;;
11504;SDS011;5809;53.262;10.408;2024-01-15T07:10:24;12.93;;;2.43;;
11504;SDS011;5809;53.262;10.408;2024-01-15T07:12:51;12.00;;;2.87;;
11504;SDS011;5809;53.262;10.408;2024-01-15T07:15:20;10.83;;;2.23;;
11504;SDS011;5809;53.262;10.408;2024-01-15T07:17:47;14.40;;;2.60;;
11504;SDS011;5809;53.262;10.408;2024-01-15T07:20:13;11.60;;;2.40;;
11504;SDS011;5809;53.262;10.408;2024-01-15T07:22:40;9.87;;;2.00;;
11504;SDS011;5809;53.262;10.408;2024-01-15T07:25:07;10.87;;;2.17;;
11504;SDS011;5809;53.262;10.408;2024-01-15T07:27:34;14.23;;;2.37;;
11504;SDS011;5809;53.262;10.408;2024-01-15T07:30:01;9.80;;;2.43;;
11504;SDS011;5809;53.262;10.408;2024-01-15T07:32:31;10.80;;;2.97;;
11504;SDS011;5809;53.262;10.408;2024-01-15T07:34:58;10.20;;;2.30;;
11504;SDS011;5809;53.262;10.408;2024-01-15T07:37:25;10.93;;;2.50;;
11504;SDS011;5809;53.262;10.408;2024-01-15T07:39:53;9.50;;;2.70;;
11504;SDS011;5809;53.262;10.408;2024-01-15T07:42:20;7.60;;;2.33;;
11504;SDS011;5809;53.262;10.408;2024-01-15T07:44:47;8.07;;;2.23;;
11504;SDS011;5809;53.262;10.408;2024-01-15T07:47:16;7.50;;;2.37;;
11504;SDS011;5809;53.262;10.408;2024-01-15T07:49:45;10.90;;;2.63;;
11504;SDS011;5809;53.262;10.408;2024-01-15T07:52:12;10.27;;;2.50;;
11504;SDS011;5809;53.262;10.408;2024-01-15T07:54:38;10.97;;;2.50;;
11504;SDS011;5809;53.262;10.408;2024-01-15T07:57:06;10.63;;;2.10;;
11504;SDS011;5809;53.262;10.408;2024-01-15T07:59:32;9.50;;;2.00;;
11504;SDS011;5809;53.262;10.408;2024-01-15T08:02:01;6.60;;;1.60;;
11504;SDS011;5809;53.262;10.408;2024-01-15T08:04:29;5.90;;;1.60;;
11504;SDS011;5809;53.262;10.408;2024-01-15T08:06:57;7.33;;;2.03;;
11504;SDS011;5809;53.262;10.408;2024-01-15T08:09:24;8.37;;;1.73;;
11504;SDS011;5809;53.262;10.408;2024-01-15T08:11:51;7.00;;;2.07;;
11504;SDS011;5809;53.262;10.408;2024-01-15T08:14:18;5.73;;;1.43;;
11504;SDS011;5809;53.262;10.408;2024-01-15T08:16:45;5.27;;;1.37;;
11504;SDS011;5809;53.262;10.408;2024-01-15T08:19:12;4.60;;;1.40;;
11504;SDS011;5809;53.262;10.408;2024-01-15T08:21:40;7.23;;;2.13;;
11504;SDS011;5809;53.262;10.408;2024-01-15T08:24:08;6.33;;;1.40;;
11504;SDS011;5809;53.262;10.408;2024-01-15T08:26:35;8.37;;;1.97;;
11504;SDS011;5809;53.262;10.408;2024-01-15T08:29:02;5.60;;;1.03;;
11504;SDS011;5809;53.262;10.408;2024-01-15T08:31:29;17.17;;;6.47;;
11504;SDS011;5809;53.262;10.408;2024-01-15T08:33:56;12.17;;;6.80;;
11504;SDS011;5809;53.262;10.408;2024-01-15T08:36:24;6.23;;;1.77;;
11504;SDS011;5809;53.262;10.408;2024-01-15T08:38:51;4.00;;;1.07;;
11504;SDS011;5809;53.262;10.408;2024-01-15T08:41:20;6.80;;;1.03;;
11504;SDS011;5809;53.262;10.408;2024-01-15T08:43:47;3.97;;;1.03;;
11504;SDS011;5809;53.262;10.408;2024-01-15T08:46:14;2.77;;;0.80;;
11504;SDS011;5809;53.262;10.408;2024-01-15T08:48:41;2.67;;;0.90;;
11504;SDS011;5809;53.262;10.408;2024-01-15T08:51:08;3.50;;;0.97;;
11504;SDS011;5809;53.262;10.408;2024-01-15T08:53:35;2.80;;;0.83;;
11504;SDS011;5809;53.262;10.408;2024-01-15T08:56:02;1.50;;;0.63;;
11504;SDS011;5809;53.262;10.408;2024-01-15T08:58:32;2.00;;;0.70;;
11504;SDS011;5809;53.262;10.408;2024-01-15T09:00:59;0.73;;;0.60;;
11504;SDS011;5809;53.262;10.408;2024-01-15T09:03:26;3.03;;;0.60;;
11504;SDS011;5809;53.262;10.408;2024-01-15T09:05:53;2.20;;;0.80;;
11504;SDS011;5809;53.262;10.408;2024-01-15T09:08:21;2.77;;;0.90;;
11504;SDS011;5809;53.262;10.408;2024-01-15T09:10:49;3.53;;;1.00;;
11504;SDS011;5809;53.262;10.408;2024-01-15T09:13:16;2.20;;;0.80;;
11504;SDS011;5809;53.262;10.408;2024-01-15T09:15:44;1.17;;;1.03;;
11504;SDS011;5809;53.262;10.408;2024-01-15T09:18:11;1.97;;;0.97;;
11504;SDS011;5809;53.262;10.408;2024-01-15T09:20:38;1.37;;;1.20;;
11504;SDS011;5809;53.262;10.408;2024-01-15T09:23:05;1.77;;;1.00;;
11504;SDS011;5809;53.262;10.408;2024-01-15T09:25:32;1.73;;;1.00;;
11504;SDS011;5809;53.262;10.408;2024-01-15T09:27:59;3.23;;;1.10;;
11504;SDS011;5809;53.262;10.408;2024-01-15T09:30:27;2.50;;;1.20;;
11504;SDS011;5809;53.262;10.408;2024-01-15T09:32:55;1.53;;;1.10;;
11504;SDS011;5809;53.262;10.408;2024-01-15T09:35:22;1.73;;;1.00;;
11504;SDS011;5809;53.262;10.408;2024-01-15T09:37:49;3.13;;;0.90;;
11504;SDS011;5809;53.262;10.408;2024-01-15T09:40:16;3.03;;;1.00;;
11504;SDS011;5809;53.262;10.408;2024-01-15T09:42:43;2.23;;;0.73;;
11504;SDS011;5809;53.262;10.408;2024-01-15T09:45:11;3.30;;;1.13;;
11504;SDS011;5809;53.262;10.408;2024-01-15T09:47:38;2.87;;;0.80;;
11504;SDS011;5809;53.262;10.408;2024-01-15T09:50:07;2.23;;;0.83;;
11504;SDS011;5809;53.262;10.408;2024-01-15T09:52:35;2.60;;;0.70;;
11504;SDS011;5809;53.262;10.408;2024-01-15T09:55:02;3.37;;;0.80;;
11504;SDS011;5809;53.262;10.408;2024-01-15T09:57:30;2.90;;;1.07;;
11504;SDS011;5809;53.262;10.408;2024-01-15T09:59:58;3.13;;;0.80;;
11504;SDS011;5809;53.262;10.408;2024-01-15T10:02:29;3.37;;;1.20;;
11504;SDS011;5809;53.262;10.408;2024-01-15T10:04:57;4.17;;;2.93;;
11504;SDS011;5809;53.262;10.408;2024-01-15T10:07:26;3.97;;;1.63;;
11504;SDS011;5809;53.262;10.408;2024-01-15T10:09:55;3.00;;;1.20;;
11504;SDS011;5809;53.262;10.408;2024-01-15T10:12:21;2.57;;;0.97;;
11504;SDS011;5809;53.262;10.408;2024-01-15T10:14:50;3.93;;;1.20;;
11504;SDS011;5809;53.262;10.408;2024-01-15T10:17:17;1.80;;;0.73;;
11504;SDS011;5809;53.262;10.408;2024-01-15T10:19:44;5.77;;;1.30;;
11504;SDS011;5809;53.262;10.408;2024-01-15T10:22:12;1.10;;;0.80;;
11504;SDS011;5809;53.262;10.408;2024-01-15T10:24:41;2.50;;;1.20;;
11504;SDS011;5809;53.262;10.408;2024-01-15T10:27:09;3.33;;;1.00;;
11504;SDS011;5809;53.262;10.408;2024-01-15T10:29:37;2.97;;;1.20;;
11504;SDS011;5809;53.262;10.408;2024-01-15T10:32:06;4.53;;;1.10;;
11504;SDS011;5809;53.262;10.408;2024-01-15T10:34:34;3.27;;;1.00;;
11504;SDS011;5809;53.262;10.408;2024-01-15T10:37:07;2.23;;;1.00;;
11504;SDS011;5809;53.262;10.408;2024-01-15T10:39:35;3.73;;;1.50;;
11504;SDS011;5809;53.262;10.408;2024-01-15T10:42:04;5.77;;;1.90;;
11504;SDS011;5809;53.262;10.408;2024-01-15T10:44:32;3.20;;;1.40;;
11504;SDS011;5809;53.262;10.408;2024-01-15T10:46:59;4.40;;;1.80;;
11504;SDS011;5809;53.262;10.408;2024-01-15T10:49:26;2.77;;;1.70;;
11504;SDS011;5809;53.262;10.408;2024-01-15T10:51:54;2.93;;;1.77;;
11504;SDS011;5809;53.262;10.408;2024-01-15T10:54:21;3.37;;;2.20;;
11504;SDS011;5809;53.262;10.408;2024-01-15T10:56:49;3.33;;;1.93;;
11504;SDS011;5809;53.262;10.408;2024-01-15T10:59:19;3.63;;;2.10;;
11504;SDS011;5809;53.262;10.408;2024-01-15T11:01:47;3.77;;;2.97;;
11504;SDS011;5809;53.262;10.408;2024-01-15T11:04:15;6.30;;;2.30;;
11504;SDS011;5809;53.262;10.408;2024-01-15T11:06:43;4.10;;;2.10;;
11504;SDS011;5809;53.262;10.408;2024-01-15T11:09:11;3.07;;;2.37;;
11504;SDS011;5809;53.262;10.408;2024-01-15T11:11:40;3.07;;;1.97;;
11504;SDS011;5809;53.262;10.408;2024-01-15T11:14:08;2.43;;;2.10;;
11504;SDS011;5809;53.262;10.408;2024-01-15T11:16:55;3.30;;;2.10;;
11504;SDS011;5809;53.262;10.408;2024-01-15T11:19:24;2.20;;;1.93;;
11504;SDS011;5809;53.262;10.408;2024-01-15T11:21:51;2.30;;;1.90;;
11504;SDS011;5809;53.262;10.408;2024-01-15T11:27:06;2.50;;;1.90;;
11504;SDS011;5809;53.262;10.408;2024-01-15T11:29:34;2.73;;;2.07;;
11504;SDS011;5809;53.262;10.408;2024-01-15T11:32:04;2.90;;;2.10;;
11504;SDS011;5809;53.262;10.408;2024-01-15T11:34:51;4.63;;;2.10;;
11504;SDS011;5809;53.262;10.408;2024-01-15T11:37:27;2.50;;;2.27;;
11504;SDS011;5809;53.262;10.408;2024-01-15T11:39:55;3.67;;;2.40;;
11504;SDS011;5809;53.262;10.408;2024-01-15T11:42:28;4.23;;;3.23;;
11504;SDS011;5809;53.262;10.408;2024-01-15T11:44:56;5.63;;;3.40;;
11504;SDS011;5809;53.262;10.408;2024-01-15T11:47:36;5.70;;;3.10;;
11504;SDS011;5809;53.262;10.408;2024-01-15T11:50:33;5.63;;;3.70;;
11504;SDS011;5809;53.262;10.408;2024-01-15T11:53:02;5.57;;;3.53;;
11504;SDS011;5809;53.262;10.408;2024-01-15T11:55:30;5.97;;;3.43;;
11504;SDS011;5809;53.262;10.408;2024-01-15T11:58:01;8.43;;;4.37;;
11504;SDS011;5809;53.262;10.408;2024-01-15T12:00:28;8.57;;;4.07;;
11504;SDS011;5809;53.262;10.408;2024-01-15T12:02:58;6.10;;;3.83;;
11504;SDS011;5809;53.262;10.408;2024-01-15T12:05:27;6.00;;;4.20;;
11504;SDS011;5809;53.262;10.408;2024-01-15T12:07:54;4.53;;;3.83;;
11504;SDS011;5809;53.262;10.408;2024-01-15T12:10:22;10.23;;;6.70;;
11504;SDS011;5809;53.262;10.408;2024-01-15T12:12:53;10.93;;;6.37;;
11504;SDS011;5809;53.262;10.408;2024-01-15T12:15:24;5.47;;;3.07;;
11504;SDS011;5809;53.262;10.408;2024-01-15T12:17:52;3.90;;;2.50;;
11504;SDS011;5809;53.262;10.408;2024-01-15T12:20:21;5.20;;;2.47;;
11504;SDS011;5809;53.262;10.408;2024-01-15T12:22:47;4.30;;;2.03;;
11504;SDS011;5809;53.262;10.408;2024-01-15T12:25:15;4.10;;;2.10;;
11504;SDS011;5809;53.262;10.408;2024-01-15T12:27:41;4.47;;;1.80;;
11504;SDS011;5809;53.262;10.408;2024-01-15T12:30:10;3.67;;;1.70;;
11504;SDS011;5809;53.262;10.408;2024-01-15T12:32:38;2.67;;;1.30;;
11504;SDS011;5809;53.262;10.408;2024-01-15T12:35:05;3.10;;;1.50;;
11504;SDS011;5809;53.262;10.408;2024-01-15T12:37:34;4.47;;;1.53;;
11504;SDS011;5809;53.262;10.408;2024-01-15T12:40:02;2.93;;;1.30;;
11504;SDS011;5809;53.262;10.408;2024-01-15T12:42:29;3.33;;;1.53;;
11504;SDS011;5809;53.262;10.408;2024-01-15T12:44:56;1.87;;;1.13;;
11504;SDS011;5809;53.262;10.408;2024-01-15T12:47:23;2.30;;;1.50;;
11504;SDS011;5809;53.262;10.408;2024-01-15T12:49:51;2.10;;;1.57;;
11504;SDS011;5809;53.262;10.408;2024-01-15T12:52:19;1.60;;;1.40;;
11504;SDS011;5809;53.262;10.408;2024-01-15T12:54:48;2.80;;;1.43;;
11504;SDS011;5809;53.262;10.408;2024-01-15T12:57:16;2.27;;;1.20;;
11504;SDS011;5809;53.262;10.408;2024-01-15T12:59:43;1.83;;;1.07;;
11504;SDS011;5809;53.262;10.408;2024-01-15T13:02:10;1.60;;;0.90;;
11504;SDS011;5809;53.262;10.408;2024-01-15T13:04:38;1.37;;;0.90;;
11504;SDS011;5809;53.262;10.408;2024-01-15T13:07:05;4.07;;;1.27;;
11504;SDS011;5809;53.262;10.408;2024-01-15T13:09:32;1.50;;;0.97;;
11504;SDS011;5809;53.262;10.408;2024-01-15T13:12:01;1.93;;;1.13;;
11504;SDS011;5809;53.262;10.408;2024-01-15T13:14:28;2.00;;;0.90;;
11504;SDS011;5809;53.262;10.408;2024-01-15T13:16:55;3.53;;;1.30;;
11504;SDS011;5809;53.262;10.408;2024-01-15T13:19:23;2.40;;;1.17;;
11504;SDS011;5809;53.262;10.408;2024-01-15T13:21:50;2.83;;;0.80;;
11504;SDS011;5809;53.262;10.408;2024-01-15T13:24:18;1.17;;;0.80;;
11504;SDS011;5809;53.262;10.408;2024-01-15T13:26:45;1.20;;;1.10;;
11504;SDS011;5809;53.262;10.408;2024-01-15T13:29:14;1.73;;;1.10;;
11504;SDS011;5809;53.262;10.408;2024-01-15T13:31:40;1.37;;;0.90;;
11504;SDS011;5809;53.262;10.408;2024-01-15T13:34:09;1.30;;;0.80;;
11504;SDS011;5809;53.262;10.408;2024-01-15T13:36:36;3.57;;;0.90;;
11504;SDS011;5809;53.262;10.408;2024-01-15T13:39:04;2.23;;;0.80;;
11504;SDS011;5809;53.262;10.408;2024-01-15T13:41:34;1.27;;;0.80;;
11504;SDS011;5809;53.262;10.408;2024-01-15T13:44:01;3.07;;;0.90;;
11504;SDS011;5809;53.262;10.408;2024-01-15T13:46:30;2.10;;;0.90;;
11504;SDS011;5809;53.262;10.408;2024-01-15T13:48:56;0.80;;;0.80;;
11504;SDS011;5809;53.262;10.408;2024-01-15T13:51:23;0.83;;;0.70;;
11504;SDS011;5809;53.262;10.408;2024-01-15T13:53:51;1.03;;;0.90;;
11504;SDS011;5809;53.262;10.408;2024-01-15T13:56:18;1.23;;;0.70;;
11504;SDS011;5809;53.262;10.408;2024-01-15T13:58:45;4.93;;;2.87;;
11504;SDS011;5809;53.262;10.408;2024-01-15T14:01:14;3.73;;;2.70;;
11504;SDS011;5809;53.262;10.408;2024-01-15T14:03:43;3.27;;;1.60;;
11504;SDS011;5809;53.262;10.408;2024-01-15T14:06:10;26.47;;;16.00;;
11504;SDS011;5809;53.262;10.408;2024-01-15T14:08:37;1.93;;;1.60;;
11504;SDS011;5809;53.262;10.408;2024-01-15T14:11:04;1.70;;;1.07;;
11504;SDS011;5809;53.262;10.408;2024-01-15T14:13:32;1.23;;;1.10;;
11504;SDS011;5809;53.262;10.408;2024-01-15T14:15:59;1.93;;;1.10;;
11504;SDS011;5809;53.262;10.408;2024-01-15T14:18:26;2.77;;;1.57;;
11504;SDS011;5809;53.262;10.408;2024-01-15T14:20:54;3.70;;;3.30;;
11504;SDS011;5809;53.262;10.408;2024-01-15T14:23:21;6.90;;;4.67;;
11504;SDS011;5809;53.262;10.408;2024-01-15T14:25:48;10.60;;;6.33;;
11504;SDS011;5809;53.262;10.408;2024-01-15T14:28:15;2.10;;;1.50;;
11504;SDS011;5809;53.262;10.408;2024-01-15T14:30:42;1.27;;;1.17;;
11504;SDS011;5809;53.262;10.408;2024-01-15T14:33:09;2.40;;;2.20;;
11504;SDS011;5809;53.262;10.408;2024-01-15T14:35:36;1.90;;;1.53;;
11504;SDS011;5809;53.262;10.408;2024-01-15T14:38:05;3.57;;;2.00;;
11504;SDS011;5809;53.262;10.408;2024-01-15T14:40:32;3.37;;;2.57;;
11504;SDS011;5809;53.262;10.408;2024-01-15T14:42:59;3.40;;;1.90;;
11504;SDS011;5809;53.262;10.408;2024-01-15T14:45:27;1.87;;;1.50;;
11504;SDS011;5809;53.262;10.408;2024-01-15T14:47:55;3.40;;;2.10;;